sensor_id;sensor_type;location;lat;lon;timestamp;P1;durP1;ratioP1;P2;durP2;ratioP2
79202;SDS011;68630;42.748;23.278;2024-03-06T00:01:58;46.70;;;20.25;;
79202;SDS011;68630;42.748;23.278;2024-03-06T00:13:56;40.98;;;19.52;;
79202;SDS011;68630;42.748;23.278;2024-03-06T00:16:37;46.08;;;18.35;;
79202;SDS011;68630;42.748;23.278;2024-03-06T00:19:33;42.08;;;18.23;;
79202;SDS011;68630;42.748;23.278;2024-03-06T01:19:19;44.00;;;20.32;;
79202;SDS011;68630;42.748;23.278;2024-03-06T01:21:57;49.25;;;21.37;;
79202;SDS011;68630;42.748;23.278;2024-03-06T01:24:44;52.62;;;23.77;;
79202;SDS011;68630;42.748;23.278;2024-03-06T01:27:29;48.05;;;23.75;;
79202;SDS011;68630;42.748;23.278;2024-03-06T01:33:16;52.48;;;22.35;;
79202;SDS011;68630;42.748;23.278;2024-03-06T01:41:29;41.10;;;19.62;;
79202;SDS011;68630;42.748;23.278;2024-03-06T01:44:25;41.53;;;19.35;;
79202;SDS011;68630;42.748;23.278;2024-03-06T01:47:09;42.10;;;18.92;;
79202;SDS011;68630;42.748;23.278;2024-03-06T01:49:45;38.65;;;18.73;;
79202;SDS011;68630;42.748;23.278;2024-03-06T01:52:26;44.08;;;20.68;;
79202;SDS011;68630;42.748;23.278;2024-03-06T02:01:00;40.85;;;20.20;;
79202;SDS011;68630;42.748;23.278;2024-03-06T02:03:31;43.28;;;20.77;;
79202;SDS011;68630;42.748;23.278;2024-03-06T02:11:37;38.55;;;19.52;;
79202;SDS011;68630;42.748;23.278;2024-03-06T02:14:17;37.25;;;18.67;;
79202;SDS011;68630;42.748;23.278;2024-03-06T02:17:06;40.78;;;17.85;;
79202;SDS011;68630;42.748;23.278;2024-03-06T02:31:32;44.23;;;17.87;;
79202;SDS011;68630;42.748;23.278;2024-03-06T02:53:31;41.55;;;17.98;;
79202;SDS011;68630;42.748;23.278;2024-03-06T02:56:03;46.65;;;17.73;;
79202;SDS011;68630;42.748;23.278;2024-03-06T02:58:36;43.60;;;19.48;;
79202;SDS011;68630;42.748;23.278;2024-03-06T03:01:09;45.78;;;19.73;;
79202;SDS011;68630;42.748;23.278;2024-03-06T03:03:43;44.77;;;19.85;;
79202;SDS011;68630;42.748;23.278;2024-03-06T03:06:16;46.55;;;20.48;;
79202;SDS011;68630;42.748;23.278;2024-03-06T03:08:51;50.52;;;19.52;;
79202;SDS011;68630;42.748;23.278;2024-03-06T03:11:26;44.83;;;19.77;;
79202;SDS011;68630;42.748;23.278;2024-03-06T03:14:05;46.73;;;21.05;;
79202;SDS011;68630;42.748;23.278;2024-03-06T03:16:37;47.50;;;20.52;;
79202;SDS011;68630;42.748;23.278;2024-03-06T03:19:08;50.25;;;19.42;;
79202;SDS011;68630;42.748;23.278;2024-03-06T03:21:43;50.85;;;19.52;;
79202;SDS011;68630;42.748;23.278;2024-03-06T03:24:29;50.03;;;18.87;;
79202;SDS011;68630;42.748;23.278;2024-03-06T03:27:10;43.58;;;20.32;;
79202;SDS011;68630;42.748;23.278;2024-03-06T03:29:48;37.85;;;19.07;;
79202;SDS011;68630;42.748;23.278;2024-03-06T03:32:24;46.58;;;19.87;;
79202;SDS011;68630;42.748;23.278;2024-03-06T03:35:10;36.90;;;17.90;;
79202;SDS011;68630;42.748;23.278;2024-03-06T03:38:11;43.98;;;18.90;;
79202;SDS011;68630;42.748;23.278;2024-03-06T03:41:00;40.88;;;17.55;;
79202;SDS011;68630;42.748;23.278;2024-03-06T03:43:37;39.30;;;17.25;;
79202;SDS011;68630;42.748;23.278;2024-03-06T03:49:05;45.78;;;18.02;;
79202;SDS011;68630;42.748;23.278;2024-03-06T03:55:03;43.70;;;19.65;;
79202;SDS011;68630;42.748;23.278;2024-03-06T03:57:40;45.00;;;20.70;;
79202;SDS011;68630;42.748;23.278;2024-03-06T04:06:44;46.65;;;18.87;;
79202;SDS011;68630;42.748;23.278;2024-03-06T04:09:29;48.70;;;19.35;;
79202;SDS011;68630;42.748;23.278;2024-03-06T04:12:13;42.15;;;18.45;;
79202;SDS011;68630;42.748;23.278;2024-03-06T04:14:52;53.08;;;19.52;;
79202;SDS011;68630;42.748;23.278;2024-03-06T04:17:47;51.23;;;19.75;;
79202;SDS011;68630;42.748;23.278;2024-03-06T04:20:20;47.40;;;20.50;;
79202;SDS011;68630;42.748;23.278;2024-03-06T04:23:01;63.50;;;20.30;;
79202;SDS011;68630;42.748;23.278;2024-03-06T04:25:34;54.40;;;20.17;;
79202;SDS011;68630;42.748;23.278;2024-03-06T04:31:00;49.63;;;19.40;;
79202;SDS011;68630;42.748;23.278;2024-03-06T04:33:36;46.00;;;18.67;;
79202;SDS011;68630;42.748;23.278;2024-03-06T04:36:14;47.83;;;19.40;;
79202;SDS011;68630;42.748;23.278;2024-03-06T04:38:49;45.45;;;18.73;;
79202;SDS011;68630;42.748;23.278;2024-03-06T04:41:34;45.98;;;19.42;;
79202;SDS011;68630;42.748;23.278;2024-03-06T04:44:01;45.58;;;19.85;;
79202;SDS011;68630;42.748;23.278;2024-03-06T04:46:32;43.02;;;20.23;;
79202;SDS011;68630;42.748;23.278;2024-03-06T04:57:27;49.33;;;21.30;;
79202;SDS011;68630;42.748;23.278;2024-03-06T04:59:56;47.05;;;20.82;;
79202;SDS011;68630;42.748;23.278;2024-03-06T05:06:07;54.35;;;18.00;;
79202;SDS011;68630;42.748;23.278;2024-03-06T05:08:42;40.43;;;17.12;;
79202;SDS011;68630;42.748;23.278;2024-03-06T05:11:24;36.30;;;17.55;;
79202;SDS011;68630;42.748;23.278;2024-03-06T05:27:15;51.70;;;19.00;;
79202;SDS011;68630;42.748;23.278;2024-03-06T05:32:28;45.83;;;19.32;;
79202;SDS011;68630;42.748;23.278;2024-03-06T05:35:05;47.55;;;20.50;;
79202;SDS011;68630;42.748;23.278;2024-03-06T05:37:39;46.68;;;20.55;;
79202;SDS011;68630;42.748;23.278;2024-03-06T05:43:11;51.85;;;20.85;;
79202;SDS011;68630;42.748;23.278;2024-03-06T05:48:35;46.68;;;19.87;;
79202;SDS011;68630;42.748;23.278;2024-03-06T05:54:02;49.73;;;21.27;;
79202;SDS011;68630;42.748;23.278;2024-03-06T05:56:47;50.48;;;22.70;;
79202;SDS011;68630;42.748;23.278;2024-03-06T06:54:36;41.30;;;16.17;;
79202;SDS011;68630;42.748;23.278;2024-03-06T06:57:09;41.65;;;17.73;;
79202;SDS011;68630;42.748;23.278;2024-03-06T06:59:39;38.10;;;16.15;;
79202;SDS011;68630;42.748;23.278;2024-03-06T07:02:11;37.03;;;17.07;;
79202;SDS011;68630;42.748;23.278;2024-03-06T07:26:21;33.60;;;15.88;;
79202;SDS011;68630;42.748;23.278;2024-03-06T07:28:50;37.85;;;17.87;;
79202;SDS011;68630;42.748;23.278;2024-03-06T07:31:21;34.08;;;16.65;;
79202;SDS011;68630;42.748;23.278;2024-03-06T07:33:50;33.80;;;15.95;;
79202;SDS011;68630;42.748;23.278;2024-03-06T07:36:28;36.65;;;15.40;;
79202;SDS011;68630;42.748;23.278;2024-03-06T07:38:57;35.35;;;15.40;;
79202;SDS011;68630;42.748;23.278;2024-03-06T07:41:25;34.35;;;15.10;;
79202;SDS011;68630;42.748;23.278;2024-03-06T07:43:52;33.92;;;14.90;;
79202;SDS011;68630;42.748;23.278;2024-03-06T07:49:12;32.90;;;15.78;;
79202;SDS011;68630;42.748;23.278;2024-03-06T07:57:17;40.12;;;18.30;;
79202;SDS011;68630;42.748;23.278;2024-03-06T07:59:44;44.53;;;18.02;;
79202;SDS011;68630;42.748;23.278;2024-03-06T08:02:19;43.75;;;18.00;;
79202;SDS011;68630;42.748;23.278;2024-03-06T08:05:01;32.95;;;17.05;;
79202;SDS011;68630;42.748;23.278;2024-03-06T08:13:30;32.05;;;17.48;;
79202;SDS011;68630;42.748;23.278;2024-03-06T08:16:01;38.30;;;18.30;;
79202;SDS011;68630;42.748;23.278;2024-03-06T08:18:38;33.23;;;16.42;;
79202;SDS011;68630;42.748;23.278;2024-03-06T08:24:24;38.33;;;16.85;;
79202;SDS011;68630;42.748;23.278;2024-03-06T08:26:51;35.23;;;17.75;;
79202;SDS011;68630;42.748;23.278;2024-03-06T08:29:18;35.95;;;16.65;;
79202;SDS011;68630;42.748;23.278;2024-03-06T08:40:36;31.55;;;16.05;;
79202;SDS011;68630;42.748;23.278;2024-03-06T08:43:04;33.85;;;15.45;;
79202;SDS011;68630;42.748;23.278;2024-03-06T08:45:41;33.73;;;15.05;;
79202;SDS011;68630;42.748;23.278;2024-03-06T08:48:13;31.57;;;14.47;;
79202;SDS011;68630;42.748;23.278;2024-03-06T08:50:55;30.35;;;15.23;;
79202;SDS011;68630;42.748;23.278;2024-03-06T08:53:19;35.45;;;14.93;;
79202;SDS011;68630;42.748;23.278;2024-03-06T08:55:48;28.55;;;14.35;;
79202;SDS011;68630;42.748;23.278;2024-03-06T08:58:21;27.40;;;15.35;;
79202;SDS011;68630;42.748;23.278;2024-03-06T09:00:52;25.85;;;14.75;;
79202;SDS011;68630;42.748;23.278;2024-03-06T09:03:19;30.90;;;14.93;;
79202;SDS011;68630;42.748;23.278;2024-03-06T09:05:47;33.18;;;15.72;;
79202;SDS011;68630;42.748;23.278;2024-03-06T09:08:14;27.77;;;14.15;;
79202;SDS011;68630;42.748;23.278;2024-03-06T09:10:41;23.73;;;13.78;;
79202;SDS011;68630;42.748;23.278;2024-03-06T09:13:09;24.55;;;13.20;;
79202;SDS011;68630;42.748;23.278;2024-03-06T09:15:36;27.95;;;13.45;;
79202;SDS011;68630;42.748;23.278;2024-03-06T09:18:04;21.75;;;12.88;;
79202;SDS011;68630;42.748;23.278;2024-03-06T09:20:31;25.02;;;12.82;;
79202;SDS011;68630;42.748;23.278;2024-03-06T09:22:59;26.90;;;13.65;;
79202;SDS011;68630;42.748;23.278;2024-03-06T09:25:26;21.70;;;12.60;;
79202;SDS011;68630;42.748;23.278;2024-03-06T09:27:54;25.25;;;11.85;;
79202;SDS011;68630;42.748;23.278;2024-03-06T09:30:22;27.40;;;13.48;;
79202;SDS011;68630;42.748;23.278;2024-03-06T09:32:56;23.05;;;13.13;;
79202;SDS011;68630;42.748;23.278;2024-03-06T09:35:24;31.07;;;12.93;;
79202;SDS011;68630;42.748;23.278;2024-03-06T09:37:55;22.60;;;12.00;;
79202;SDS011;68630;42.748;23.278;2024-03-06T09:40:24;23.22;;;11.18;;
79202;SDS011;68630;42.748;23.278;2024-03-06T09:42:51;25.30;;;10.90;;
79202;SDS011;68630;42.748;23.278;2024-03-06T09:45:19;19.40;;;9.60;;
79202;SDS011;68630;42.748;23.278;2024-03-06T09:47:47;23.32;;;10.10;;
79202;SDS011;68630;42.748;23.278;2024-03-06T09:50:21;14.63;;;8.40;;
79202;SDS011;68630;42.748;23.278;2024-03-06T09:52:53;12.13;;;7.53;;
79202;SDS011;68630;42.748;23.278;2024-03-06T09:55:23;22.60;;;10.58;;
79202;SDS011;68630;42.748;23.278;2024-03-06T09:57:51;18.52;;;9.20;;
79202;SDS011;68630;42.748;23.278;2024-03-06T10:00:20;19.77;;;8.95;;
79202;SDS011;68630;42.748;23.278;2024-03-06T10:03:00;18.67;;;8.73;;
79202;SDS011;68630;42.748;23.278;2024-03-06T10:05:48;136.25;;;12.35;;
79202;SDS011;68630;42.748;23.278;2024-03-06T10:11:56;15.80;;;8.78;;
79202;SDS011;68630;42.748;23.278;2024-03-06T10:14:24;20.35;;;8.80;;
79202;SDS011;68630;42.748;23.278;2024-03-06T10:16:59;14.85;;;7.50;;
79202;SDS011;68630;42.748;23.278;2024-03-06T10:19:38;18.45;;;8.20;;
79202;SDS011;68630;42.748;23.278;2024-03-06T10:22:06;17.35;;;8.13;;
79202;SDS011;68630;42.748;23.278;2024-03-06T10:24:34;21.23;;;7.80;;
79202;SDS011;68630;42.748;23.278;2024-03-06T10:27:01;12.35;;;7.30;;
79202;SDS011;68630;42.748;23.278;2024-03-06T10:29:29;15.30;;;7.30;;
79202;SDS011;68630;42.748;23.278;2024-03-06T10:31:57;19.67;;;7.65;;
79202;SDS011;68630;42.748;23.278;2024-03-06T10:34:27;14.38;;;7.17;;
79202;SDS011;68630;42.748;23.278;2024-03-06T10:37:02;15.20;;;7.17;;
79202;SDS011;68630;42.748;23.278;2024-03-06T10:39:39;12.50;;;7.83;;
79202;SDS011;68630;42.748;23.278;2024-03-06T10:42:13;18.20;;;7.90;;
79202;SDS011;68630;42.748;23.278;2024-03-06T10:44:47;14.23;;;7.15;;
79202;SDS011;68630;42.748;23.278;2024-03-06T10:50:43;12.80;;;6.58;;
79202;SDS011;68630;42.748;23.278;2024-03-06T10:53:22;17.05;;;7.87;;
79202;SDS011;68630;42.748;23.278;2024-03-06T10:55:53;16.50;;;8.23;;
79202;SDS011;68630;42.748;23.278;2024-03-06T10:58:20;14.83;;;8.20;;
79202;SDS011;68630;42.748;23.278;2024-03-06T11:00:52;15.43;;;8.13;;
79202;SDS011;68630;42.748;23.278;2024-03-06T11:03:22;19.32;;;8.00;;
79202;SDS011;68630;42.748;23.278;2024-03-06T11:05:54;22.70;;;7.90;;
79202;SDS011;68630;42.748;23.278;2024-03-06T11:08:23;12.13;;;7.70;;
79202;SDS011;68630;42.748;23.278;2024-03-06T11:10:54;15.48;;;7.65;;
79202;SDS011;68630;42.748;23.278;2024-03-06T11:13:26;16.32;;;7.78;;
79202;SDS011;68630;42.748;23.278;2024-03-06T11:16:01;13.28;;;7.20;;
79202;SDS011;68630;42.748;23.278;2024-03-06T11:21:00;18.35;;;7.28;;
79202;SDS011;68630;42.748;23.278;2024-03-06T11:23:30;13.25;;;6.85;;
79202;SDS011;68630;42.748;23.278;2024-03-06T11:26:05;12.65;;;6.72;;
79202;SDS011;68630;42.748;23.278;2024-03-06T11:28:37;12.82;;;6.47;;
79202;SDS011;68630;42.748;23.278;2024-03-06T11:31:11;12.40;;;6.78;;
79202;SDS011;68630;42.748;23.278;2024-03-06T11:33:42;17.00;;;7.40;;
79202;SDS011;68630;42.748;23.278;2024-03-06T11:36:25;13.25;;;6.75;;
79202;SDS011;68630;42.748;23.278;2024-03-06T11:38:58;19.70;;;7.37;;
79202;SDS011;68630;42.748;23.278;2024-03-06T11:41:33;12.15;;;7.00;;
79202;SDS011;68630;42.748;23.278;2024-03-06T11:44:18;18.77;;;7.20;;
79202;SDS011;68630;42.748;23.278;2024-03-06T11:46:48;14.93;;;6.50;;
79202;SDS011;68630;42.748;23.278;2024-03-06T11:49:21;16.12;;;6.75;;
79202;SDS011;68630;42.748;23.278;2024-03-06T11:51:54;18.05;;;7.20;;
79202;SDS011;68630;42.748;23.278;2024-03-06T11:54:23;12.50;;;6.58;;
79202;SDS011;68630;42.748;23.278;2024-03-06T11:56:53;17.23;;;7.33;;
79202;SDS011;68630;42.748;23.278;2024-03-06T11:59:23;14.68;;;6.40;;
79202;SDS011;68630;42.748;23.278;2024-03-06T12:01:56;10.50;;;6.30;;
79202;SDS011;68630;42.748;23.278;2024-03-06T12:10:59;17.40;;;6.42;;
79202;SDS011;68630;42.748;23.278;2024-03-06T12:16:43;12.98;;;6.10;;
79202;SDS011;68630;42.748;23.278;2024-03-06T12:19:16;10.18;;;5.75;;
79202;SDS011;68630;42.748;23.278;2024-03-06T12:22:14;17.55;;;6.55;;
79202;SDS011;68630;42.748;23.278;2024-03-06T12:27:54;23.05;;;5.83;;
79202;SDS011;68630;42.748;23.278;2024-03-06T12:30:42;14.58;;;4.92;;
79202;SDS011;68630;42.748;23.278;2024-03-06T12:33:21;16.67;;;5.90;;
79202;SDS011;68630;42.748;23.278;2024-03-06T12:38:33;14.35;;;5.92;;
79202;SDS011;68630;42.748;23.278;2024-03-06T12:41:15;11.30;;;5.15;;
79202;SDS011;68630;42.748;23.278;2024-03-06T12:44:02;14.38;;;6.08;;
79202;SDS011;68630;42.748;23.278;2024-03-06T12:46:46;9.28;;;4.97;;
79202;SDS011;68630;42.748;23.278;2024-03-06T12:49:15;9.13;;;4.87;;
79202;SDS011;68630;42.748;23.278;2024-03-06T12:51:47;18.95;;;5.85;;
79202;SDS011;68630;42.748;23.278;2024-03-06T12:54:16;10.80;;;4.20;;
79202;SDS011;68630;42.748;23.278;2024-03-06T12:56:56;10.68;;;5.28;;
79202;SDS011;68630;42.748;23.278;2024-03-06T12:59:28;12.25;;;5.35;;
79202;SDS011;68630;42.748;23.278;2024-03-06T13:02:06;26.52;;;5.90;;
79202;SDS011;68630;42.748;23.278;2024-03-06T13:04:43;12.43;;;4.80;;
79202;SDS011;68630;42.748;23.278;2024-03-06T13:07:16;11.40;;;5.75;;
79202;SDS011;68630;42.748;23.278;2024-03-06T13:09:48;13.22;;;5.17;;
79202;SDS011;68630;42.748;23.278;2024-03-06T13:12:26;9.85;;;5.65;;
79202;SDS011;68630;42.748;23.278;2024-03-06T13:14:57;10.30;;;4.67;;
79202;SDS011;68630;42.748;23.278;2024-03-06T13:17:32;12.00;;;4.90;;
79202;SDS011;68630;42.748;23.278;2024-03-06T13:20:27;15.38;;;5.12;;
79202;SDS011;68630;42.748;23.278;2024-03-06T13:23:05;11.73;;;5.25;;
79202;SDS011;68630;42.748;23.278;2024-03-06T13:25:35;13.05;;;5.20;;
79202;SDS011;68630;42.748;23.278;2024-03-06T13:28:12;11.48;;;4.92;;
79202;SDS011;68630;42.748;23.278;2024-03-06T13:30:40;13.10;;;5.08;;
79202;SDS011;68630;42.748;23.278;2024-03-06T13:33:14;14.18;;;5.08;;
79202;SDS011;68630;42.748;23.278;2024-03-06T13:35:45;18.77;;;5.47;;
79202;SDS011;68630;42.748;23.278;2024-03-06T13:38:14;12.05;;;4.95;;
79202;SDS011;68630;42.748;23.278;2024-03-06T13:40:43;13.48;;;5.47;;
79202;SDS011;68630;42.748;23.278;2024-03-06T13:43:15;13.90;;;5.60;;
79202;SDS011;68630;42.748;23.278;2024-03-06T13:45:51;11.78;;;5.30;;
79202;SDS011;68630;42.748;23.278;2024-03-06T13:48:21;10.70;;;5.45;;
79202;SDS011;68630;42.748;23.278;2024-03-06T13:50:55;10.55;;;6.12;;
79202;SDS011;68630;42.748;23.278;2024-03-06T13:53:24;10.88;;;5.40;;
79202;SDS011;68630;42.748;23.278;2024-03-06T13:55:56;11.93;;;5.08;;
79202;SDS011;68630;42.748;23.278;2024-03-06T13:58:25;9.58;;;5.03;;
79202;SDS011;68630;42.748;23.278;2024-03-06T14:00:55;10.48;;;5.42;;
79202;SDS011;68630;42.748;23.278;2024-03-06T14:03:30;8.75;;;5.20;;
79202;SDS011;68630;42.748;23.278;2024-03-06T14:05:59;17.30;;;5.92;;
79202;SDS011;68630;42.748;23.278;2024-03-06T14:08:29;11.68;;;5.22;;
79202;SDS011;68630;42.748;23.278;2024-03-06T14:11:05;10.23;;;5.20;;
79202;SDS011;68630;42.748;23.278;2024-03-06T14:16:08;13.25;;;5.78;;
79202;SDS011;68630;42.748;23.278;2024-03-06T14:18:40;11.70;;;5.22;;
79202;SDS011;68630;42.748;23.278;2024-03-06T14:21:15;16.50;;;6.30;;
79202;SDS011;68630;42.748;23.278;2024-03-06T14:23:42;17.87;;;7.42;;
79202;SDS011;68630;42.748;23.278;2024-03-06T14:26:14;18.42;;;5.90;;
79202;SDS011;68630;42.748;23.278;2024-03-06T14:28:49;11.57;;;6.22;;
79202;SDS011;68630;42.748;23.278;2024-03-06T14:34:36;14.87;;;6.37;;
79202;SDS011;68630;42.748;23.278;2024-03-06T14:37:12;11.70;;;5.85;;
79202;SDS011;68630;42.748;23.278;2024-03-06T14:39:44;10.88;;;5.78;;
79202;SDS011;68630;42.748;23.278;2024-03-06T14:42:12;11.55;;;6.62;;
79202;SDS011;68630;42.748;23.278;2024-03-06T14:49:50;16.30;;;7.90;;
79202;SDS011;68630;42.748;23.278;2024-03-06T14:52:18;17.45;;;8.80;;
79202;SDS011;68630;42.748;23.278;2024-03-06T14:58:09;16.45;;;7.95;;
79202;SDS011;68630;42.748;23.278;2024-03-06T15:00:42;24.72;;;9.88;;
79202;SDS011;68630;42.748;23.278;2024-03-06T15:06:18;20.48;;;10.35;;
79202;SDS011;68630;42.748;23.278;2024-03-06T15:08:50;14.38;;;8.53;;
79202;SDS011;68630;42.748;23.278;2024-03-06T15:11:21;13.08;;;8.30;;
79202;SDS011;68630;42.748;23.278;2024-03-06T15:13:52;15.53;;;8.40;;
79202;SDS011;68630;42.748;23.278;2024-03-06T15:16:19;17.17;;;8.28;;
79202;SDS011;68630;42.748;23.278;2024-03-06T15:18:47;25.77;;;9.58;;
79202;SDS011;68630;42.748;23.278;2024-03-06T15:21:21;20.75;;;9.08;;
79202;SDS011;68630;42.748;23.278;2024-03-06T15:23:58;17.90;;;8.88;;
79202;SDS011;68630;42.748;23.278;2024-03-06T15:26:28;16.05;;;9.25;;
79202;SDS011;68630;42.748;23.278;2024-03-06T15:28:58;16.70;;;9.73;;
79202;SDS011;68630;42.748;23.278;2024-03-06T15:31:36;17.92;;;9.78;;
79202;SDS011;68630;42.748;23.278;2024-03-06T15:34:24;17.02;;;9.65;;
79202;SDS011;68630;42.748;23.278;2024-03-06T15:36:57;18.55;;;10.28;;
79202;SDS011;68630;42.748;23.278;2024-03-06T15:39:28;16.48;;;9.60;;
79202;SDS011;68630;42.748;23.278;2024-03-06T15:41:57;21.25;;;10.08;;
79202;SDS011;68630;42.748;23.278;2024-03-06T15:44:30;19.12;;;9.85;;
79202;SDS011;68630;42.748;23.278;2024-03-06T15:49:58;23.07;;;8.98;;
79202;SDS011;68630;42.748;23.278;2024-03-06T15:52:33;21.23;;;9.55;;
79202;SDS011;68630;42.748;23.278;2024-03-06T15:55:01;28.73;;;9.45;;
79202;SDS011;68630;42.748;23.278;2024-03-06T15:57:35;25.40;;;10.20;;
79202;SDS011;68630;42.748;23.278;2024-03-06T16:00:14;31.57;;;11.08;;
79202;SDS011;68630;42.748;23.278;2024-03-06T16:02:47;23.25;;;9.03;;
79202;SDS011;68630;42.748;23.278;2024-03-06T16:07:55;19.80;;;9.10;;
79202;SDS011;68630;42.748;23.278;2024-03-06T16:13:24;13.18;;;6.60;;
79202;SDS011;68630;42.748;23.278;2024-03-06T16:15:52;22.35;;;8.10;;
79202;SDS011;68630;42.748;23.278;2024-03-06T16:18:26;25.20;;;9.28;;
79202;SDS011;68630;42.748;23.278;2024-03-06T16:20:56;20.92;;;9.05;;
79202;SDS011;68630;42.748;23.278;2024-03-06T16:23:27;23.02;;;9.23;;
79202;SDS011;68630;42.748;23.278;2024-03-06T16:25:57;30.77;;;9.73;;
79202;SDS011;68630;42.748;23.278;2024-03-06T16:28:25;22.90;;;9.78;;
79202;SDS011;68630;42.748;23.278;2024-03-06T16:30:52;24.07;;;11.12;;
79202;SDS011;68630;42.748;23.278;2024-03-06T16:33:22;20.23;;;10.28;;
79202;SDS011;68630;42.748;23.278;2024-03-06T16:35:49;20.85;;;10.58;;
79202;SDS011;68630;42.748;23.278;2024-03-06T16:38:17;27.73;;;11.70;;
79202;SDS011;68630;42.748;23.278;2024-03-06T16:40:47;20.68;;;10.30;;
79202;SDS011;68630;42.748;23.278;2024-03-06T16:43:16;27.65;;;10.38;;
79202;SDS011;68630;42.748;23.278;2024-03-06T16:45:46;22.42;;;9.35;;
79202;SDS011;68630;42.748;23.278;2024-03-06T16:48:15;19.50;;;9.03;;
79202;SDS011;68630;42.748;23.278;2024-03-06T16:50:48;15.58;;;7.72;;
79202;SDS011;68630;42.748;23.278;2024-03-06T16:53:18;18.23;;;7.33;;
79202;SDS011;68630;42.748;23.278;2024-03-06T16:58:31;23.95;;;8.83;;
79202;SDS011;68630;42.748;23.278;2024-03-06T17:01:02;17.17;;;7.92;;
79202;SDS011;68630;42.748;23.278;2024-03-06T17:03:39;16.93;;;8.13;;
79202;SDS011;68630;42.748;23.278;2024-03-06T17:06:15;19.48;;;8.80;;
79202;SDS011;68630;42.748;23.278;2024-03-06T17:08:45;14.23;;;9.23;;
79202;SDS011;68630;42.748;23.278;2024-03-06T17:11:19;25.23;;;9.10;;
79202;SDS011;68630;42.748;23.278;2024-03-06T17:13:59;17.82;;;8.95;;
79202;SDS011;68630;42.748;23.278;2024-03-06T17:16:34;23.73;;;10.05;;
79202;SDS011;68630;42.748;23.278;2024-03-06T17:19:16;17.20;;;10.43;;
79202;SDS011;68630;42.748;23.278;2024-03-06T17:21:51;21.00;;;9.60;;
79202;SDS011;68630;42.748;23.278;2024-03-06T17:24:25;23.85;;;11.05;;
79202;SDS011;68630;42.748;23.278;2024-03-06T17:26:52;28.10;;;12.20;;
79202;SDS011;68630;42.748;23.278;2024-03-06T17:29:34;24.77;;;11.75;;
79202;SDS011;68630;42.748;23.278;2024-03-06T17:32:03;24.60;;;10.75;;
79202;SDS011;68630;42.748;23.278;2024-03-06T17:34:43;28.05;;;12.37;;
79202;SDS011;68630;42.748;23.278;2024-03-06T17:37:16;26.12;;;13.32;;
79202;SDS011;68630;42.748;23.278;2024-03-06T17:39:48;24.25;;;12.63;;
79202;SDS011;68630;42.748;23.278;2024-03-06T17:42:19;21.35;;;9.25;;
79202;SDS011;68630;42.748;23.278;2024-03-06T17:44:55;19.42;;;8.75;;
79202;SDS011;68630;42.748;23.278;2024-03-06T17:47:25;16.75;;;9.15;;
79202;SDS011;68630;42.748;23.278;2024-03-06T17:49:52;24.25;;;10.48;;
79202;SDS011;68630;42.748;23.278;2024-03-06T17:52:31;23.83;;;11.97;;
79202;SDS011;68630;42.748;23.278;2024-03-06T17:54:59;28.50;;;11.12;;
79202;SDS011;68630;42.748;23.278;2024-03-06T17:57:33;27.90;;;11.15;;
79202;SDS011;68630;42.748;23.278;2024-03-06T18:00:02;28.73;;;12.73;;
79202;SDS011;68630;42.748;23.278;2024-03-06T18:02:32;26.23;;;12.30;;
79202;SDS011;68630;42.748;23.278;2024-03-06T18:05:02;25.75;;;13.20;;
79202;SDS011;68630;42.748;23.278;2024-03-06T18:07:33;28.52;;;13.65;;
79202;SDS011;68630;42.748;23.278;2024-03-06T18:10:05;27.32;;;13.83;;
79202;SDS011;68630;42.748;23.278;2024-03-06T18:12:52;27.58;;;14.07;;
79202;SDS011;68630;42.748;23.278;2024-03-06T18:15:28;24.57;;;13.98;;
79202;SDS011;68630;42.748;23.278;2024-03-06T18:18:04;25.08;;;13.18;;
79202;SDS011;68630;42.748;23.278;2024-03-06T18:20:37;25.85;;;12.70;;
79202;SDS011;68630;42.748;23.278;2024-03-06T18:23:10;29.37;;;12.88;;
79202;SDS011;68630;42.748;23.278;2024-03-06T18:25:49;33.65;;;14.83;;
79202;SDS011;68630;42.748;23.278;2024-03-06T18:28:23;24.37;;;13.08;;
79202;SDS011;68630;42.748;23.278;2024-03-06T18:30:54;26.40;;;14.53;;
79202;SDS011;68630;42.748;23.278;2024-03-06T18:33:27;26.48;;;13.65;;
79202;SDS011;68630;42.748;23.278;2024-03-06T18:36:08;25.43;;;13.50;;
79202;SDS011;68630;42.748;23.278;2024-03-06T18:38:37;29.50;;;13.70;;
79202;SDS011;68630;42.748;23.278;2024-03-06T18:41:09;27.13;;;12.10;;
79202;SDS011;68630;42.748;23.278;2024-03-06T18:46:53;24.63;;;12.37;;
79202;SDS011;68630;42.748;23.278;2024-03-06T18:50:00;25.55;;;11.38;;
79202;SDS011;68630;42.748;23.278;2024-03-06T18:52:33;27.17;;;12.00;;
79202;SDS011;68630;42.748;23.278;2024-03-06T18:55:13;19.27;;;11.38;;
79202;SDS011;68630;42.748;23.278;2024-03-06T18:57:44;20.15;;;11.05;;
79202;SDS011;68630;42.748;23.278;2024-03-06T19:00:14;23.32;;;12.55;;
79202;SDS011;68630;42.748;23.278;2024-03-06T19:02:57;24.65;;;13.45;;
79202;SDS011;68630;42.748;23.278;2024-03-06T19:05:39;24.85;;;14.00;;
79202;SDS011;68630;42.748;23.278;2024-03-06T19:08:13;24.55;;;14.05;;
79202;SDS011;68630;42.748;23.278;2024-03-06T19:10:45;24.87;;;13.95;;
79202;SDS011;68630;42.748;23.278;2024-03-06T19:13:14;27.87;;;15.30;;
79202;SDS011;68630;42.748;23.278;2024-03-06T19:15:47;27.67;;;15.03;;
79202;SDS011;68630;42.748;23.278;2024-03-06T19:18:20;24.23;;;13.75;;
79202;SDS011;68630;42.748;23.278;2024-03-06T19:20:50;24.82;;;14.25;;
79202;SDS011;68630;42.748;23.278;2024-03-06T19:23:30;25.23;;;13.30;;
79202;SDS011;68630;42.748;23.278;2024-03-06T19:26:17;22.30;;;11.75;;
79202;SDS011;68630;42.748;23.278;2024-03-06T19:28:53;19.60;;;11.43;;
79202;SDS011;68630;42.748;23.278;2024-03-06T19:31:38;18.70;;;10.70;;
79202;SDS011;68630;42.748;23.278;2024-03-06T19:34:26;20.15;;;11.45;;
79202;SDS011;68630;42.748;23.278;2024-03-06T19:36:54;18.60;;;10.53;;
79202;SDS011;68630;42.748;23.278;2024-03-06T19:39:31;20.35;;;10.60;;
79202;SDS011;68630;42.748;23.278;2024-03-06T19:42:22;13.73;;;8.63;;
79202;SDS011;68630;42.748;23.278;2024-03-06T19:45:05;17.55;;;7.90;;
79202;SDS011;68630;42.748;23.278;2024-03-06T19:47:36;13.38;;;7.83;;
79202;SDS011;68630;42.748;23.278;2024-03-06T19:50:16;12.55;;;7.35;;
79202;SDS011;68630;42.748;23.278;2024-03-06T19:52:48;12.50;;;7.05;;
79202;SDS011;68630;42.748;23.278;2024-03-06T19:55:30;13.13;;;5.95;;
79202;SDS011;68630;42.748;23.278;2024-03-06T19:58:00;13.00;;;6.37;;
79202;SDS011;68630;42.748;23.278;2024-03-06T20:00:32;10.00;;;5.45;;
79202;SDS011;68630;42.748;23.278;2024-03-06T20:05:59;9.85;;;5.90;;
79202;SDS011;68630;42.748;23.278;2024-03-06T20:11:41;11.30;;;5.75;;
79202;SDS011;68630;42.748;23.278;2024-03-06T20:14:20;11.22;;;6.08;;
79202;SDS011;68630;42.748;23.278;2024-03-06T20:16:49;11.15;;;5.70;;
79202;SDS011;68630;42.748;23.278;2024-03-06T20:19:28;10.90;;;6.40;;
79202;SDS011;68630;42.748;23.278;2024-03-06T20:22:01;11.75;;;6.50;;
79202;SDS011;68630;42.748;23.278;2024-03-06T20:24:38;14.33;;;7.25;;
79202;SDS011;68630;42.748;23.278;2024-03-06T20:29:45;12.47;;;6.92;;
79202;SDS011;68630;42.748;23.278;2024-03-06T20:32:22;12.20;;;6.97;;
79202;SDS011;68630;42.748;23.278;2024-03-06T20:34:58;12.70;;;6.67;;